Sigas Ingrid — VRCQ6 — position and weather

sailwx.info

Track history (hours):
 
Tides and Currents Weather Stations Pressure Air Temp Water Temp Dewpoint Dewpoint Depression Visibility Wind Speed Wind Dir Waves Ship Positions

Sigas Ingrid

Last reported at 2016-May-17 22:15 UTC. Time now 2016-May-30 14:32 UTC.
Position N 02°12' E 101°57'.
Warning: this ship's position is 12 days out of date.

Length 100 m; draft 5.4 m.

Type: Ship (hazmat cat A). MMSI: 477658800.

Date/timePositionNaut miles runAvg speedWind from/ knotsBaromVisibWave heightAir tempDewpointWater temp
2016-May-17 22:15N 02°12' E 101°57'1312.4
2016-May-17 21:14N 02°04' E 102°07'1112.8
2016-May-17 20:25N 01°57' E 102°15'1113.2
2016-May-17 19:33N 01°52' E 102°25'1714.1
2016-May-17 18:19N 01°46' E 102°41'5813.5
2016-May-17 14:04N 01°13' E 103°29'713.0
2016-May-17 13:33N 01°12' E 103°35'4 3.5
2016-May-17 12:26N 01°14' E 103°39'0 0.0
2016-May-17 11:26N 01°14' E 103°39'0 0.0
2016-May-17 10:11N 01°14' E 103°39'0 0.0
2016-May-17 07:17N 01°14' E 103°39'0 0.0
2016-May-17 02:23N 01°14' E 103°39'2 3.0
2016-May-17 01:33N 01°11' E 103°40'9 8.8
2016-May-17 00:33N 01°11' E 103°48'1313.0
2016-May-16 23:33N 01°16' E 104°01'  
2016-May-12 07:26N 01°16' E 104°11'1213.4
2016-May-12 06:33N 01°14' E 103°59'1010.2
2016-May-12 05:34N 01°10' E 103°50'1413.5
2016-May-12 04:33N 01°03' E 103°38'8113.0
2016-May-11 22:17N 01°47' E 102°29'912.6
2016-May-11 21:34N 01°51' E 102°21'  
Track history (hours):
 
Tides and Currents Weather Stations Pressure Air Temp Water Temp Dewpoint Dewpoint Depression Visibility Wind Speed Wind Dir Waves Ship Positions

Sigas Ingrid

Last reported at 2016-May-17 22:15 UTC. Time now 2016-May-30 14:32 UTC.
Position N 02°12' E 101°57'.
Warning: this ship's position is 12 days out of date.

Length 100 m; draft 5.4 m.

Type: Ship (hazmat cat A). MMSI: 477658800.

Date/timePositionNaut miles runAvg speedWind from/ knotsBaromVisibWave heightAir tempDewpointWater temp
2016-May-17 22:15N 02°12' E 101°57'1312.4
2016-May-17 21:14N 02°04' E 102°07'1112.8
2016-May-17 20:25N 01°57' E 102°15'1113.2
2016-May-17 19:33N 01°52' E 102°25'1714.1
2016-May-17 18:19N 01°46' E 102°41'5813.5
2016-May-17 14:04N 01°13' E 103°29'713.0
2016-May-17 13:33N 01°12' E 103°35'4 3.5
2016-May-17 12:26N 01°14' E 103°39'0 0.0
2016-May-17 11:26N 01°14' E 103°39'0 0.0
2016-May-17 10:11N 01°14' E 103°39'0 0.0
2016-May-17 07:17N 01°14' E 103°39'0 0.0
2016-May-17 02:23N 01°14' E 103°39'2 3.0
2016-May-17 01:33N 01°11' E 103°40'9 8.8
2016-May-17 00:33N 01°11' E 103°48'1313.0
2016-May-16 23:33N 01°16' E 104°01'  
2016-May-12 07:26N 01°16' E 104°11'1213.4
2016-May-12 06:33N 01°14' E 103°59'1010.2
2016-May-12 05:34N 01°10' E 103°50'1413.5
2016-May-12 04:33N 01°03' E 103°38'8113.0
2016-May-11 22:17N 01°47' E 102°29'912.6
2016-May-11 21:34N 01°51' E 102°21'  

Dump ship's entire track history